Time;durP1;ratioP1;P1;durP2;ratioP2;P2;SDS_P1;SDS_P2;PMS_P1;PMS_P2;Temp;Humidity;BMP_temperature;BMP_pressure;BME280_temperature;BME280_humidity;BME280_pressure;Samples;Min_cycle;Max_cycle;Signal;HPM_P1;HPM_P2
2022/08/02 00:00:57;;;;;;;0.47;0.43;;;20.00;99.90;;;;;;4387668;32;20071;-73
2022/08/02 00:03:23;;;;;;;0.50;0.50;;;20.00;99.90;;;;;;4386168;32;20087;-73
2022/08/02 00:05:49;;;;;;;0.30;0.30;;;20.00;99.90;;;;;;4385651;32;20529;-73
2022/08/02 00:08:14;;;;;;;0.50;0.50;;;20.00;99.90;;;;;;4385384;32;20074;-73
2022/08/02 00:10:40;;;;;;;0.57;0.57;;;20.00;99.90;;;;;;4384650;32;20099;-73
2022/08/02 00:13:05;;;;;;;0.40;0.40;;;20.00;99.90;;;;;;4385592;32;20530;-73
2022/08/02 00:15:31;;;;;;;0.50;0.50;;;19.80;99.90;;;;;;4385159;32;20070;-73
2022/08/02 00:17:56;;;;;;;0.30;0.30;;;19.80;99.90;;;;;;4385443;32;20125;-73
2022/08/02 00:20:22;;;;;;;0.30;0.30;;;19.80;99.90;;;;;;4386184;32;20086;-73
2022/08/02 00:22:47;;;;;;;0.35;0.35;;;19.80;99.90;;;;;;4385450;32;20533;-74
2022/08/02 00:25:13;;;;;;;0.40;0.40;;;19.90;99.90;;;;;;4385235;32;20372;-73
2022/08/02 00:27:38;;;;;;;1.55;1.15;;;19.90;99.90;;;;;;4384878;32;20086;-74
2022/08/02 00:30:04;;;;;;;0.30;0.30;;;20.00;99.90;;;;;;4384441;32;20412;-73
2022/08/02 00:32:29;;;;;;;0.40;0.40;;;19.90;99.90;;;;;;4395531;32;20078;-73
2022/08/02 00:34:55;;;;;;;0.20;0.20;;;19.80;99.90;;;;;;4399291;32;20525;-73
2022/08/02 00:37:20;;;;;;;2.30;1.20;;;19.70;99.90;;;;;;4399569;32;20074;-73
2022/08/02 00:39:46;;;;;;;0.20;0.20;;;19.70;99.90;;;;;;4400655;32;20126;-73
2022/08/02 00:42:14;;;;;;;0.30;0.30;;;19.70;99.90;;;;;;4400120;32;20113;-73
2022/08/02 00:44:40;;;;;;;0.47;0.47;;;19.50;99.90;;;;;;4399657;32;20090;-73
2022/08/02 00:47:06;;;;;;;0.30;0.30;;;19.50;99.90;;;;;;4399077;32;20073;-73
2022/08/02 00:49:31;;;;;;;0.93;0.60;;;19.50;99.90;;;;;;4399469;32;20070;-73
2022/08/02 00:51:57;;;;;;;0.30;0.30;;;19.50;99.90;;;;;;4400913;32;20446;-73
2022/08/02 00:54:22;;;;;;;0.30;0.30;;;19.50;99.90;;;;;;4398990;32;20078;-73
2022/08/02 00:56:48;;;;;;;0.40;0.40;;;19.50;99.90;;;;;;4399196;32;20081;-73
2022/08/02 00:59:13;;;;;;;5.50;0.32;;;19.60;99.90;;;;;;4399831;32;20066;-73
2022/08/02 01:01:39;;;;;;;0.40;0.40;;;19.60;99.90;;;;;;4392392;32;20169;-73
2022/08/02 01:04:10;;;;;;;0.32;0.32;;;19.60;99.90;;;;;;4394846;32;20069;-73
2022/08/02 01:06:36;;;;;;;;;;;19.50;99.90;;;;;;4399708;32;20082;-73
2022/08/02 01:09:03;;;;;;;0.25;0.25;;;19.40;99.90;;;;;;4400098;32;19949;-73
2022/08/02 01:11:29;;;;;;;0.20;0.20;;;19.50;99.90;;;;;;4399967;32;20050;-73
2022/08/02 01:13:58;;;;;;;0.45;0.40;;;19.60;99.90;;;;;;4400253;32;20062;-73
2022/08/02 01:16:27;;;;;;;0.20;0.20;;;19.60;99.90;;;;;;4400163;32;20054;-73
2022/08/02 01:18:58;;;;;;;0.30;0.30;;;19.60;99.90;;;;;;4400864;32;20069;-73
2022/08/02 01:21:39;;;;;;;0.43;0.43;;;19.60;99.90;;;;;;4400317;32;20428;-73
2022/08/02 01:24:35;;;;;;;0.40;0.40;;;19.50;99.90;;;;;;4399479;32;20125;-73
2022/08/02 01:27:32;;;;;;;1.65;0.85;;;19.30;99.90;;;;;;4398692;32;20062;-73
2022/08/02 01:30:00;;;;;;;0.50;0.50;;;19.30;99.90;;;;;;4399112;32;20156;-73
2022/08/02 01:32:32;;;;;;;0.30;0.30;;;19.40;99.90;;;;;;4398239;32;20074;-73
2022/08/02 01:35:06;;;;;;;0.32;0.32;;;19.50;99.90;;;;;;4398576;32;20066;-73
2022/08/02 01:37:38;;;;;;;0.20;0.20;;;19.40;99.90;;;;;;4399907;32;20053;-73
2022/08/02 01:40:08;;;;;;;0.30;0.30;;;19.40;99.90;;;;;;4400046;32;20125;-73
2022/08/02 01:42:37;;;;;;;0.30;0.30;;;19.50;99.90;;;;;;4401702;32;20066;-73
2022/08/02 01:45:04;;;;;;;0.65;0.65;;;19.50;99.90;;;;;;4399579;32;20057;-73
2022/08/02 01:47:34;;;;;;;0.20;0.20;;;19.50;99.90;;;;;;4402008;32;20066;-73
2022/08/02 01:50:00;;;;;;;0.32;0.32;;;19.50;99.90;;;;;;4403504;32;20153;-73
2022/08/02 01:52:29;;;;;;;0.30;0.30;;;19.50;99.90;;;;;;4403151;32;20100;-73
2022/08/02 01:55:01;;;;;;;0.60;0.60;;;19.40;99.90;;;;;;4402604;32;20104;-73
2022/08/02 01:57:33;;;;;;;0.93;0.40;;;19.40;99.90;;;;;;4402654;32;20516;-73
2022/08/02 01:59:59;;;;;;;0.30;0.30;;;19.30;99.90;;;;;;4401990;32;20071;-73
2022/08/02 02:02:27;;;;;;;3.20;0.90;;;19.30;99.90;;;;;;4402516;32;20086;-73
2022/08/02 02:04:54;;;;;;;1.55;1.25;;;19.30;99.90;;;;;;4402897;32;20069;-73
2022/08/02 02:07:20;;;;;;;0.70;0.70;;;19.30;99.90;;;;;;4401869;32;20082;-73
2022/08/02 02:09:49;;;;;;;0.50;0.50;;;19.30;99.90;;;;;;4401974;32;20069;-73
2022/08/02 02:12:16;;;;;;;0.30;0.30;;;19.20;99.90;;;;;;4402277;32;20071;-73
2022/08/02 02:14:43;;;;;;;0.30;0.30;;;19.20;99.90;;;;;;4403625;32;20100;-73
2022/08/02 02:17:10;;;;;;;0.60;0.47;;;19.20;99.90;;;;;;4401236;32;20058;-74
2022/08/02 02:19:38;;;;;;;0.47;0.47;;;19.20;99.90;;;;;;4401526;32;20070;-73
2022/08/02 02:22:04;;;;;;;0.40;0.40;;;19.20;99.90;;;;;;4402459;32;20070;-73
2022/08/02 02:24:30;;;;;;;0.70;0.70;;;19.20;99.90;;;;;;4401338;32;20086;-73
2022/08/02 02:26:58;;;;;;;0.30;0.30;;;19.20;99.90;;;;;;4401110;32;20124;-73
2022/08/02 02:29:27;;;;;;;0.30;0.30;;;19.10;99.90;;;;;;4401822;32;20069;-73
2022/08/02 02:31:54;;;;;;;0.90;0.57;;;19.10;99.90;;;;;;4401008;32;20066;-73
2022/08/02 02:34:39;;;;;;;0.80;0.50;;;19.00;99.90;;;;;;4401262;32;20066;-73
2022/08/02 02:37:11;;;;;;;0.20;0.20;;;19.00;99.90;;;;;;4402537;32;20427;-73
2022/08/02 02:39:38;;;;;;;0.25;0.25;;;19.00;99.90;;;;;;4402161;32;20132;-73
2022/08/02 02:42:07;;;;;;;2.62;0.70;;;19.10;99.90;;;;;;4401252;32;20078;-73
2022/08/02 02:44:34;;;;;;;0.30;0.30;;;19.00;99.90;;;;;;4401586;32;20070;-73
2022/08/02 02:47:01;;;;;;;0.40;0.37;;;19.00;99.90;;;;;;4401107;32;20121;-73
2022/08/02 02:49:30;;;;;;;0.45;0.45;;;18.90;99.90;;;;;;4401366;32;20062;-73
2022/08/02 02:51:57;;;;;;;0.60;0.60;;;18.80;99.90;;;;;;4401265;32;20067;-74
2022/08/02 02:54:24;;;;;;;0.30;0.30;;;18.90;99.90;;;;;;4402896;32;20125;-73
2022/08/02 02:56:51;;;;;;;3.10;0.50;;;18.90;99.90;;;;;;4399849;32;20081;-74
2022/08/02 02:59:17;;;;;;;0.32;0.32;;;18.80;99.90;;;;;;4401687;32;20062;-73
2022/08/02 03:01:43;;;;;;;0.30;0.30;;;18.90;99.90;;;;;;4401019;32;20086;-73
2022/08/02 03:04:11;;;;;;;0.30;0.30;;;19.00;99.90;;;;;;4390354;32;20082;-73
2022/08/02 03:06:37;;;;;;;0.20;0.20;;;19.00;99.90;;;;;;4385685;32;20066;-73
2022/08/02 03:09:03;;;;;;;0.30;0.30;;;18.90;99.90;;;;;;4385752;32;20074;-73
2022/08/02 03:11:30;;;;;;;0.30;0.30;;;19.10;99.90;;;;;;4385886;32;20557;-73
2022/08/02 03:13:58;;;;;;;0.30;0.30;;;19.10;99.90;;;;;;4386187;32;20074;-74
2022/08/02 03:16:24;;;;;;;0.30;0.30;;;19.10;99.90;;;;;;4386442;32;20406;-74
2022/08/02 03:18:50;;;;;;;0.70;0.68;;;19.10;99.90;;;;;;4386049;32;20131;-74
2022/08/02 03:21:15;;;;;;;1.23;0.88;;;19.10;99.90;;;;;;4399490;32;20070;-74
2022/08/02 03:23:42;;;;;;;0.37;0.37;;;19.10;99.90;;;;;;4401120;32;20058;-74
2022/08/02 03:26:09;;;;;;;0.43;0.43;;;19.00;99.90;;;;;;4400805;32;20446;-73
2022/08/02 03:28:34;;;;;;;3.05;0.60;;;19.00;99.90;;;;;;4400922;32;20170;-74
2022/08/02 03:31:00;;;;;;;0.45;0.45;;;18.90;99.90;;;;;;4399868;32;20487;-74
2022/08/02 03:33:27;;;;;;;0.40;0.40;;;18.70;99.90;;;;;;4399539;32;20070;-74
2022/08/02 03:35:55;;;;;;;0.30;0.30;;;18.60;99.90;;;;;;4400506;32;20439;-74
2022/08/02 03:38:22;;;;;;;0.57;0.55;;;18.70;99.90;;;;;;4400338;32;20057;-75
2022/08/02 03:40:48;;;;;;;0.30;0.30;;;18.60;99.90;;;;;;4400629;32;20090;-75
2022/08/02 03:43:15;;;;;;;0.37;0.37;;;18.60;99.90;;;;;;4401899;32;20078;-74
2022/08/02 03:45:44;;;;;;;0.60;0.52;;;18.60;99.90;;;;;;4400523;32;20066;-74
2022/08/02 03:48:11;;;;;;;0.60;0.60;;;18.60;99.90;;;;;;4400365;32;20117;-74
2022/08/02 03:50:38;;;;;;;0.30;0.30;;;18.60;99.90;;;;;;4401946;32;20069;-74
2022/08/02 03:53:05;;;;;;;0.75;0.40;;;18.70;99.90;;;;;;4401025;32;20530;-74
2022/08/02 03:55:31;;;;;;;21.55;0.68;;;18.50;99.90;;;;;;4400136;32;20066;-74
2022/08/02 03:57:57;;;;;;;0.50;0.45;;;18.50;99.90;;;;;;4400206;32;20066;-74
2022/08/02 04:00:23;;;;;;;0.30;0.30;;;18.50;99.90;;;;;;4400193;32;20154;-74
2022/08/02 04:02:49;;;;;;;0.30;0.30;;;18.50;99.90;;;;;;4399923;32;20066;-74
2022/08/02 04:05:16;;;;;;;0.30;0.30;;;18.40;99.90;;;;;;4400515;32;20074;-73
2022/08/02 04:07:43;;;;;;;0.20;0.20;;;18.40;99.90;;;;;;4401629;32;20078;-74
2022/08/02 04:10:09;;;;;;;0.20;0.20;;;18.40;99.90;;;;;;4400641;32;20112;-74
2022/08/02 04:12:35;;;;;;;4.20;0.95;;;18.30;99.90;;;;;;4401831;32;20082;-74
2022/08/02 04:15:02;;;;;;;0.32;0.32;;;18.20;99.90;;;;;;4402002;32;20124;-74
2022/08/02 04:17:31;;;;;;;0.40;0.40;;;18.30;99.90;;;;;;4401055;32;20066;-74
2022/08/02 04:20:04;;;;;;;1.00;0.70;;;18.30;99.90;;;;;;4400923;32;20125;-73
2022/08/02 04:22:35;;;;;;;0.47;0.40;;;18.40;99.90;;;;;;4401331;32;20112;-74
2022/08/02 04:25:03;;;;;;;0.40;0.40;;;18.40;99.90;;;;;;4400983;32;20419;-74
2022/08/02 04:27:30;;;;;;;0.30;0.30;;;18.50;99.90;;;;;;4400276;32;20066;-74
2022/08/02 04:29:57;;;;;;;0.32;0.32;;;18.50;99.90;;;;;;4399707;32;20078;-74
2022/08/02 04:32:23;;;;;;;0.50;0.50;;;18.50;99.90;;;;;;4398966;32;20086;-73
2022/08/02 04:34:49;;;;;;;0.20;0.20;;;18.50;99.90;;;;;;4399823;32;20419;-74
2022/08/02 04:37:15;;;;;;;0.40;0.40;;;18.50;99.90;;;;;;4401116;32;20070;-74
2022/08/02 04:39:40;;;;;;;0.30;0.30;;;18.50;99.90;;;;;;4400447;32;20074;-75
2022/08/02 04:42:06;;;;;;;0.40;0.40;;;18.40;99.90;;;;;;4400309;32;20523;-75
2022/08/02 04:44:32;;;;;;;0.65;0.65;;;18.30;99.90;;;;;;4400081;32;20082;-74
2022/08/02 04:47:01;;;;;;;0.30;0.30;;;18.40;99.90;;;;;;4399610;32;20071;-75
2022/08/02 04:49:28;;;;;;;0.28;0.28;;;18.50;99.90;;;;;;4399889;32;20095;-74
2022/08/02 04:51:54;;;;;;;0.50;0.50;;;18.50;99.90;;;;;;4398938;32;87520;-74
2022/08/02 04:54:20;;;;;;;0.30;0.30;;;18.40;99.90;;;;;;4400211;32;20094;-75
2022/08/02 04:56:45;;;;;;;2.17;0.60;;;18.40;99.90;;;;;;4401689;32;20149;-74
2022/08/02 04:59:11;;;;;;;0.73;0.73;;;18.40;99.90;;;;;;4398901;32;20073;-74
2022/08/02 05:01:38;;;;;;;0.30;0.30;;;18.30;99.90;;;;;;4398880;32;20087;-74
2022/08/02 05:04:04;;;;;;;0.28;0.28;;;18.40;99.90;;;;;;4398708;32;20057;-74
2022/08/02 05:06:30;;;;;;;0.30;0.30;;;18.50;99.90;;;;;;4383995;32;20082;-74
2022/08/02 05:08:55;;;;;;;0.50;0.50;;;18.50;99.90;;;;;;4386334;32;20070;-74
2022/08/02 05:11:23;;;;;;;7.12;2.15;;;18.40;99.90;;;;;;4385363;32;20379;-74
2022/08/02 05:13:49;;;;;;;5.95;1.20;;;18.30;99.90;;;;;;4385159;32;20070;-74
2022/08/02 05:16:14;;;;;;;0.50;0.50;;;18.30;99.90;;;;;;4386015;32;20557;-74
2022/08/02 05:18:39;;;;;;;0.40;0.40;;;18.30;99.90;;;;;;4384569;32;20082;-74
2022/08/02 05:21:05;;;;;;;0.47;0.47;;;18.30;99.90;;;;;;4385323;32;20284;-74
2022/08/02 05:23:30;;;;;;;0.30;0.30;;;18.30;99.90;;;;;;4386390;32;20117;-74
2022/08/02 05:25:56;;;;;;;20.73;0.45;;;18.40;99.90;;;;;;4384894;32;20086;-74
2022/08/02 05:28:22;;;;;;;0.93;0.80;;;18.40;99.90;;;;;;4385152;32;20073;-73
2022/08/02 05:30:47;;;;;;;1.45;0.65;;;18.50;99.90;;;;;;4385495;32;20117;-74
2022/08/02 05:33:12;;;;;;;0.45;0.45;;;18.40;99.90;;;;;;4396351;32;20086;-74
2022/08/02 05:35:38;;;;;;;0.43;0.43;;;18.50;99.90;;;;;;4400376;32;20085;-74
2022/08/02 05:38:03;;;;;;;0.40;0.40;;;18.60;99.90;;;;;;4400712;32;20090;-74
2022/08/02 05:40:29;;;;;;;1.12;0.88;;;18.50;99.90;;;;;;4399899;32;20086;-74
2022/08/02 05:42:54;;;;;;;0.30;0.30;;;18.40;99.90;;;;;;4400464;32;20066;-74
2022/08/02 05:45:20;;;;;;;5.75;1.48;;;18.40;99.90;;;;;;4400155;32;20487;-74
2022/08/02 05:47:46;;;;;;;0.30;0.30;;;18.40;99.90;;;;;;4399815;32;20067;-74
2022/08/02 05:50:11;;;;;;;0.77;0.68;;;18.50;99.90;;;;;;4398857;32;20086;-74
2022/08/02 05:52:48;;;;;;;0.68;0.50;;;18.70;99.90;;;;;;4399304;32;20475;-73
2022/08/02 05:55:26;;;;;;;0.45;0.45;;;18.70;99.90;;;;;;4399620;32;20065;-73
2022/08/02 05:58:01;;;;;;;0.32;0.32;;;18.80;99.90;;;;;;4399307;32;20082;-74
2022/08/02 06:00:30;;;;;;;0.30;0.30;;;19.00;99.90;;;;;;4400580;32;20125;-74
2022/08/02 06:03:23;;;;;;;0.35;0.35;;;19.10;99.90;;;;;;4400321;32;20070;-74
2022/08/02 06:06:12;;;;;;;0.30;0.30;;;19.10;99.90;;;;;;4385737;32;20067;-74
2022/08/02 06:08:43;;;;;;;0.47;0.47;;;19.20;99.90;;;;;;4383353;32;20063;-74
2022/08/02 06:11:15;;;;;;;1.85;0.68;;;19.20;99.90;;;;;;4383934;32;20066;-74
2022/08/02 06:13:42;;;;;;;0.40;0.40;;;19.30;99.90;;;;;;4384519;32;20085;-74
2022/08/02 06:16:08;;;;;;;0.90;0.65;;;19.50;99.90;;;;;;4384195;32;20121;-74
2022/08/02 06:18:34;;;;;;;0.60;0.60;;;19.60;99.90;;;;;;4383414;32;20418;-74
2022/08/02 06:21:04;;;;;;;2.10;0.95;;;19.70;99.90;;;;;;4383797;32;20058;-73
2022/08/02 06:23:31;;;;;;;0.55;0.55;;;19.80;99.90;;;;;;4383526;32;20070;-74
2022/08/02 06:25:58;;;;;;;3.30;1.40;;;19.90;99.90;;;;;;4383515;32;20090;-74
2022/08/02 06:28:25;;;;;;;0.40;0.40;;;19.90;99.90;;;;;;4385026;32;20114;-74
2022/08/02 06:30:51;;;;;;;0.45;0.45;;;19.90;99.90;;;;;;4384368;32;20062;-74
2022/08/02 06:33:16;;;;;;;1.33;1.12;;;19.90;99.90;;;;;;4399546;32;20089;-74
2022/08/02 06:35:59;;;;;;;0.35;0.35;;;19.90;99.90;;;;;;4391461;32;20062;-74
2022/08/02 06:38:30;;;;;;;1.17;0.45;;;20.00;99.90;;;;;;4385952;32;20095;-74
2022/08/02 06:41:16;;;;;;;0.40;0.40;;;20.00;99.90;;;;;;4387033;32;20399;-74
2022/08/02 06:44:02;;;;;;;0.32;0.32;;;20.00;99.90;;;;;;4395376;32;20094;-74
2022/08/02 06:46:28;;;;;;;0.50;0.50;;;20.10;99.90;;;;;;4399766;32;20070;-74
2022/08/02 06:48:53;;;;;;;4.37;1.40;;;20.10;99.90;;;;;;4401267;32;20074;-74
2022/08/02 06:51:19;;;;;;;1.95;0.50;;;20.10;99.90;;;;;;4400473;32;20043;-74
2022/08/02 06:53:45;;;;;;;0.28;0.28;;;20.10;99.90;;;;;;4400785;32;20078;-75
2022/08/02 06:56:11;;;;;;;0.55;0.55;;;20.10;99.90;;;;;;4400831;32;20074;-75
2022/08/02 06:58:36;;;;;;;0.93;0.80;;;20.20;99.90;;;;;;4400735;32;20403;-74
2022/08/02 07:01:06;;;;;;;0.22;0.22;;;20.30;99.90;;;;;;4400747;32;20610;-74
2022/08/02 07:03:32;;;;;;;0.47;0.47;;;20.50;99.90;;;;;;4401237;32;20077;-74
2022/08/02 07:05:58;;;;;;;0.45;0.40;;;20.60;99.90;;;;;;4387690;32;20522;-74
2022/08/02 07:08:25;;;;;;;0.22;0.22;;;20.70;99.90;;;;;;4387280;32;20078;-74
2022/08/02 07:10:50;;;;;;;0.22;0.22;;;20.70;99.90;;;;;;4386434;32;20075;-74
2022/08/02 07:13:16;;;;;;;0.40;0.40;;;20.70;99.90;;;;;;4386647;32;20066;-74
2022/08/02 07:15:41;;;;;;;0.30;0.30;;;20.80;99.90;;;;;;4386651;32;20419;-73
2022/08/02 07:18:12;;;;;;;0.35;0.35;;;20.60;99.90;;;;;;4386124;32;20075;-74
2022/08/02 07:20:37;;;;;;;1.45;0.95;;;20.60;99.90;;;;;;4385603;32;20510;-74
2022/08/02 07:23:03;;;;;;;0.20;0.20;;;20.50;99.90;;;;;;4388969;32;20078;-74
2022/08/02 07:25:28;;;;;;;7.03;1.92;;;20.60;99.90;;;;;;4401225;32;20074;-74
2022/08/02 07:27:54;;;;;;;0.75;0.68;;;20.70;99.90;;;;;;4400893;32;20146;-74
2022/08/02 07:30:19;;;;;;;0.30;0.30;;;20.70;99.90;;;;;;4401936;32;20081;-74
2022/08/02 07:32:45;;;;;;;0.37;0.37;;;20.80;99.90;;;;;;4400674;32;20129;-74
2022/08/02 07:35:10;;;;;;;0.47;0.47;;;20.80;99.90;;;;;;4395290;32;20078;-74
2022/08/02 07:37:37;;;;;;;0.20;0.20;;;20.90;99.90;;;;;;4386598;32;20356;-74
2022/08/02 07:40:04;;;;;;;0.20;0.20;;;21.10;99.90;;;;;;4385238;32;20348;-74
2022/08/02 07:42:30;;;;;;;2.33;1.15;;;21.20;99.90;;;;;;4386475;32;20067;-74
2022/08/02 07:44:55;;;;;;;0.43;0.35;;;21.30;99.90;;;;;;4386984;32;20075;-74
2022/08/02 07:47:20;;;;;;;11.70;0.52;;;21.50;99.90;;;;;;4401665;32;20078;-74
2022/08/02 07:49:46;;;;;;;1.17;0.50;;;21.70;99.90;;;;;;4400591;32;20094;-74
2022/08/02 07:52:11;;;;;;;0.20;0.20;;;21.80;99.90;;;;;;4400734;32;20066;-74
2022/08/02 07:54:37;;;;;;;6.32;1.55;;;21.90;99.90;;;;;;4400880;32;20125;-74
2022/08/02 07:57:03;;;;;;;0.20;0.20;;;21.90;99.90;;;;;;4400472;32;20089;-74
2022/08/02 07:59:29;;;;;;;0.88;0.85;;;22.00;99.90;;;;;;4400610;32;20568;-74
2022/08/02 08:01:54;;;;;;;0.40;0.40;;;22.20;99.90;;;;;;4401172;32;20121;-74
2022/08/02 08:04:20;;;;;;;0.40;0.40;;;22.30;99.90;;;;;;4401851;32;20066;-74
2022/08/02 08:06:50;;;;;;;0.30;0.30;;;22.50;99.20;;;;;;4396420;32;20085;-74
2022/08/02 08:09:16;;;;;;;0.43;0.43;;;22.60;99.00;;;;;;4386519;32;20422;-74
2022/08/02 08:11:41;;;;;;;0.40;0.40;;;22.70;98.90;;;;;;4386106;32;20066;-74
2022/08/02 08:14:07;;;;;;;0.20;0.20;;;22.60;99.10;;;;;;4385358;32;20127;-74
2022/08/02 08:16:32;;;;;;;0.45;0.45;;;22.70;98.80;;;;;;4385930;32;20515;-74
2022/08/02 08:18:58;;;;;;;0.40;0.40;;;22.80;98.60;;;;;;4386514;32;20117;-74
2022/08/02 08:21:24;;;;;;;0.20;0.20;;;22.80;98.90;;;;;;4385819;32;20109;-74
2022/08/02 08:23:49;;;;;;;4.18;0.85;;;23.00;98.40;;;;;;4396015;32;20062;-74
2022/08/02 08:26:15;;;;;;;0.45;0.45;;;23.00;97.60;;;;;;4399770;32;20121;-74
2022/08/02 08:28:41;;;;;;;0.22;0.22;;;22.80;97.50;;;;;;4400533;32;20061;-74
2022/08/02 08:31:06;;;;;;;0.20;0.20;;;22.70;98.10;;;;;;4400189;32;20082;-74
2022/08/02 08:33:32;;;;;;;0.50;0.50;;;22.70;98.30;;;;;;4400279;32;20407;-74
2022/08/02 08:35:58;;;;;;;0.30;0.30;;;22.80;98.00;;;;;;4399708;32;20083;-74
2022/08/02 08:38:23;;;;;;;0.20;0.20;;;23.00;98.10;;;;;;4400087;32;20069;-74
2022/08/02 08:40:50;;;;;;;0.30;0.30;;;23.20;97.60;;;;;;4400975;32;20085;-74
2022/08/02 08:43:15;;;;;;;0.45;0.45;;;23.30;97.90;;;;;;4400581;32;20062;-74
2022/08/02 08:45:43;;;;;;;0.40;0.40;;;23.30;97.60;;;;;;4399282;32;20100;-74
2022/08/02 08:48:12;;;;;;;0.30;0.30;;;23.20;97.60;;;;;;4400799;32;20250;-74
2022/08/02 08:50:44;;;;;;;1.70;0.62;;;23.20;98.00;;;;;;4400401;32;20487;-74
2022/08/02 08:53:10;;;;;;;0.30;0.30;;;23.20;97.40;;;;;;4399671;32;20071;-74
2022/08/02 08:55:36;;;;;;;0.80;0.47;;;23.10;97.30;;;;;;4399389;32;20443;-74
2022/08/02 08:58:03;;;;;;;0.30;0.30;;;23.10;97.70;;;;;;4399337;32;20066;-74
2022/08/02 09:00:31;;;;;;;0.22;0.22;;;23.30;97.50;;;;;;4399426;32;20090;-74
2022/08/02 09:02:57;;;;;;;0.20;0.20;;;23.50;96.70;;;;;;4399371;32;20092;-74
2022/08/02 09:05:24;;;;;;;0.30;0.30;;;23.50;96.80;;;;;;4399685;32;20192;-75
2022/08/02 09:07:51;;;;;;;0.20;0.20;;;23.60;96.80;;;;;;4400455;32;20061;-74
2022/08/02 09:10:38;;;;;;;1.20;0.40;;;23.70;96.70;;;;;;4399283;32;20403;-74
2022/08/02 09:13:08;;;;;;;1.83;0.85;;;23.80;95.70;;;;;;4398752;32;20067;-74
2022/08/02 09:15:34;;;;;;;0.30;0.30;;;23.80;96.20;;;;;;4399906;32;20535;-74
2022/08/02 09:18:00;;;;;;;0.20;0.20;;;23.80;96.20;;;;;;4400941;32;20062;-74
2022/08/02 09:20:25;;;;;;;0.32;0.32;;;23.80;96.60;;;;;;4399342;32;20505;-74
2022/08/02 09:23:08;;;;;;;7.97;0.60;;;23.90;96.10;;;;;;4400236;32;20074;-74
2022/08/02 09:25:34;;;;;;;0.10;0.10;;;23.80;96.10;;;;;;4399596;32;20108;-74
2022/08/02 09:28:02;;;;;;;0.28;0.28;;;23.80;96.20;;;;;;4399832;32;20133;-74
2022/08/02 09:30:28;;;;;;;0.82;0.60;;;23.90;96.10;;;;;;4400772;32;20065;-74
2022/08/02 09:32:54;;;;;;;0.50;0.50;;;23.80;96.50;;;;;;4399863;32;20071;-74
2022/08/02 09:35:36;;;;;;;0.20;0.20;;;24.20;96.00;;;;;;4400349;32;20117;-74
2022/08/02 09:38:17;;;;;;;0.25;0.25;;;24.20;96.40;;;;;;4399078;32;20494;-74
2022/08/02 09:40:43;;;;;;;0.10;0.10;;;24.50;95.80;;;;;;4399953;32;20073;-74
2022/08/02 09:43:09;;;;;;;0.20;0.20;;;24.50;95.10;;;;;;4399589;32;20125;-74
2022/08/02 09:45:35;;;;;;;2.50;0.75;;;24.80;95.60;;;;;;4399194;32;20070;-74
2022/08/02 09:48:07;;;;;;;0.20;0.20;;;24.70;95.00;;;;;;4399037;32;20070;-74
2022/08/02 09:50:34;;;;;;;0.10;0.10;;;24.50;95.10;;;;;;4399276;32;20077;-74
2022/08/02 09:53:01;;;;;;;0.20;0.20;;;24.70;95.00;;;;;;4399058;32;20065;-74
2022/08/02 09:55:27;;;;;;;1.00;0.45;;;24.90;94.70;;;;;;4398814;32;20529;-74
2022/08/02 09:57:53;;;;;;;0.30;0.30;;;25.00;94.10;;;;;;4398959;32;20085;-74
2022/08/02 10:00:19;;;;;;;0.20;0.20;;;25.00;94.40;;;;;;4398902;32;20126;-74
2022/08/02 10:03:08;;;;;;;0.15;0.15;;;25.40;94.10;;;;;;4398419;32;20082;-74
2022/08/02 10:05:52;;;;;;;0.10;0.10;;;25.90;93.60;;;;;;4397835;32;20133;-74
2022/08/02 10:08:19;;;;;;;0.22;0.20;;;26.00;93.00;;;;;;4398424;32;20089;-73
2022/08/02 10:10:45;;;;;;;0.20;0.20;;;26.10;92.90;;;;;;4401753;32;20086;-73
2022/08/02 10:13:11;;;;;;;0.20;0.20;;;26.00;92.90;;;;;;4401728;32;20525;-73
2022/08/02 10:15:37;;;;;;;4.22;0.62;;;25.90;93.10;;;;;;4401685;32;20066;-73
2022/08/02 10:18:05;;;;;;;0.30;0.30;;;25.90;92.90;;;;;;4401266;32;20125;-74
2022/08/02 10:20:35;;;;;;;0.17;0.17;;;26.10;92.60;;;;;;4401946;32;20082;-74
2022/08/02 10:23:02;;;;;;;0.20;0.20;;;26.10;92.50;;;;;;4402072;32;20074;-74
2022/08/02 10:25:29;;;;;;;0.10;0.10;;;26.20;92.70;;;;;;4401497;32;20061;-74
2022/08/02 10:27:55;;;;;;;0.40;0.40;;;26.10;92.20;;;;;;4401350;32;20066;-74
2022/08/02 10:30:23;;;;;;;0.00;0.00;;;26.10;92.20;;;;;;4401890;32;20131;-74
2022/08/02 10:32:49;;;;;;;0.10;0.10;;;26.30;91.70;;;;;;4402442;32;20078;-74
2022/08/02 10:35:19;;;;;;;6.43;0.65;;;26.50;91.30;;;;;;4401186;32;20436;-74
2022/08/02 10:37:49;;;;;;;0.20;0.20;;;26.60;91.20;;;;;;4401858;32;20140;-74
2022/08/02 10:40:22;;;;;;;0.20;0.20;;;26.70;91.10;;;;;;4402834;32;20117;-74
2022/08/02 10:42:50;;;;;;;0.75;0.52;;;26.70;90.60;;;;;;4402865;32;20062;-74
2022/08/02 10:45:18;;;;;;;1.45;0.50;;;26.90;91.20;;;;;;4401773;32;20066;-74
2022/08/02 10:48:02;;;;;;;0.32;0.32;;;27.20;90.70;;;;;;4401845;32;20070;-74
2022/08/02 10:50:51;;;;;;;0.68;0.30;;;27.30;90.30;;;;;;4400782;32;20148;-74
2022/08/02 10:53:23;;;;;;;0.10;0.10;;;27.40;89.30;;;;;;4399805;32;20086;-74
2022/08/02 10:55:49;;;;;;;0.30;0.30;;;27.40;90.30;;;;;;4401328;32;20085;-74
2022/08/02 10:58:16;;;;;;;0.10;0.10;;;28.20;89.20;;;;;;4400888;32;20125;-74
2022/08/02 11:00:41;;;;;;;0.10;0.10;;;28.00;88.70;;;;;;4401580;32;20070;-74
2022/08/02 11:03:28;;;;;;;0.35;0.35;;;28.20;87.40;;;;;;4402632;32;20078;-74
2022/08/02 11:06:11;;;;;;;1.17;0.55;;;27.80;87.30;;;;;;4401506;32;20078;-74
2022/08/02 11:08:38;;;;;;;0.32;0.32;;;28.40;87.20;;;;;;4387277;32;20074;-74
2022/08/02 11:11:13;;;;;;;0.10;0.10;;;28.40;85.00;;;;;;4386503;32;20118;-74
2022/08/02 11:14:03;;;;;;;0.17;0.17;;;28.50;85.80;;;;;;4386064;32;20086;-74
2022/08/02 11:16:57;;;;;;;2.03;1.00;;;28.60;84.50;;;;;;4385947;32;20083;-74
2022/08/02 11:19:25;;;;;;;2.87;0.93;;;28.80;83.70;;;;;;4388015;32;20423;-74
2022/08/02 11:22:10;;;;;;;0.20;0.20;;;29.10;82.40;;;;;;4401437;32;20117;-74
2022/08/02 11:24:38;;;;;;;0.85;0.25;;;28.80;83.10;;;;;;4401085;32;20151;-74
2022/08/02 11:27:05;;;;;;;0.32;0.32;;;29.20;82.00;;;;;;4400649;32;20133;-74
2022/08/02 11:29:34;;;;;;;0.43;0.40;;;29.20;80.90;;;;;;4400241;32;20116;-74
2022/08/02 11:31:59;;;;;;;0.10;0.10;;;29.50;79.50;;;;;;4400970;32;20439;-74
2022/08/02 11:34:25;;;;;;;1.80;0.75;;;29.40;80.20;;;;;;4400572;32;20062;-74
2022/08/02 11:36:52;;;;;;;0.20;0.20;;;29.10;79.50;;;;;;4401163;32;20074;-74
2022/08/02 11:39:20;;;;;;;0.10;0.10;;;29.00;79.70;;;;;;4390028;32;20538;-75
2022/08/02 11:41:51;;;;;;;0.28;0.28;;;29.40;79.50;;;;;;4385788;32;20494;-75
2022/08/02 11:44:17;;;;;;;0.00;0.00;;;29.90;78.00;;;;;;4385002;32;20086;-75
2022/08/02 11:46:43;;;;;;;0.62;0.62;;;30.10;76.90;;;;;;4397163;32;20073;-75
2022/08/02 11:49:17;;;;;;;2.42;0.85;;;30.50;75.90;;;;;;4399447;32;20086;-75
2022/08/02 11:51:52;;;;;;;1.55;0.50;;;30.80;73.80;;;;;;4400810;32;20066;-75
2022/08/02 11:54:35;;;;;;;0.32;0.17;;;31.00;72.50;;;;;;4400847;32;20073;-75
2022/08/02 11:57:19;;;;;;;0.47;0.30;;;30.60;72.80;;;;;;4399792;32;20082;-75
2022/08/02 11:59:47;;;;;;;9.02;0.40;;;31.00;72.20;;;;;;4400305;32;20090;-75
2022/08/02 12:02:14;;;;;;;0.30;0.30;;;31.00;72.30;;;;;;4399414;32;20062;-75
2022/08/02 12:04:40;;;;;;;0.20;0.20;;;31.00;73.00;;;;;;4400000;32;20078;-75
2022/08/02 12:07:06;;;;;;;0.30;0.30;;;31.30;72.50;;;;;;4400146;32;20058;-75
2022/08/02 12:09:34;;;;;;;0.30;0.30;;;31.70;71.40;;;;;;4400483;32;20073;-75
2022/08/02 12:12:00;;;;;;;0.57;0.52;;;31.50;71.00;;;;;;4399623;32;20507;-75
2022/08/02 12:14:28;;;;;;;0.05;0.05;;;31.60;71.10;;;;;;4399827;32;20086;-75
2022/08/02 12:19:26;;;;;;;0.10;0.10;;;31.70;69.80;;;;;;4399457;32;20061;-74
2022/08/02 12:19:41;;;;;;;0.15;0.15;;;31.60;71.00;;;;;;4398943;32;20073;-74
2022/08/02 12:22:12;;;;;;;0.20;0.20;;;31.90;69.50;;;;;;4399820;32;20533;-74
2022/08/02 12:24:43;;;;;;;0.25;0.25;;;31.80;69.10;;;;;;4400290;32;20086;-75
2022/08/02 12:27:08;;;;;;;0.10;0.10;;;32.30;68.60;;;;;;4400969;32;20116;-75
2022/08/02 12:29:37;;;;;;;0.62;0.60;;;32.80;67.50;;;;;;4401166;32;20073;-75
2022/08/02 12:32:05;;;;;;;0.10;0.10;;;32.90;68.00;;;;;;4399506;32;20066;-75
2022/08/02 12:34:32;;;;;;;0.20;0.20;;;33.20;64.70;;;;;;4400190;32;20066;-75
2022/08/02 12:37:02;;;;;;;2.22;0.95;;;32.90;65.10;;;;;;4399158;32;20075;-75
2022/08/02 12:39:45;;;;;;;0.43;0.43;;;33.00;65.80;;;;;;4399240;32;20120;-75
2022/08/02 12:42:13;;;;;;;0.65;0.60;;;33.50;64.50;;;;;;4399500;32;20405;-75
2022/08/02 12:44:51;;;;;;;0.10;0.10;;;33.30;64.00;;;;;;4399897;32;20117;-75
2022/08/02 12:47:17;;;;;;;0.30;0.30;;;33.40;64.20;;;;;;4396887;32;20094;-75
2022/08/02 12:49:42;;;;;;;0.50;0.50;;;33.90;63.00;;;;;;4390350;32;20069;-75
2022/08/02 12:52:23;;;;;;;0.17;0.17;;;33.60;60.80;;;;;;4398792;32;20073;-74
2022/08/02 12:54:49;;;;;;;0.20;0.20;;;32.50;62.50;;;;;;4399105;32;20079;-75